Time;durP1;ratioP1;P1;durP2;ratioP2;P2;SDS_P1;SDS_P2;PMS_P1;PMS_P2;Temp;Humidity;BMP_temperature;BMP_pressure;BME280_temperature;BME280_humidity;BME280_pressure;Samples;Min_cycle;Max_cycle;Signal;HPM_P1;HPM_P2
2023/08/20 00:01:23;;;;;;;11.52;10.65;;;27.10;99.90;;;;;;5105158;28;20198;-67
2023/08/20 00:03:52;;;;;;;12.20;10.93;;;27.00;99.90;;;;;;5105138;28;20568;-67
2023/08/20 00:06:20;;;;;;;10.65;9.95;;;26.90;99.90;;;;;;5084572;28;20759;-66
2023/08/20 00:08:47;;;;;;;11.18;10.50;;;26.80;99.90;;;;;;5084532;28;20203;-67
2023/08/20 00:11:17;;;;;;;11.70;10.70;;;26.80;99.90;;;;;;5094698;28;20305;-66
2023/08/20 00:13:44;;;;;;;11.50;10.60;;;26.70;99.90;;;;;;5104473;28;20202;-67
2023/08/20 00:16:11;;;;;;;11.52;10.52;;;26.60;99.90;;;;;;5104495;28;20744;-67
2023/08/20 00:18:39;;;;;;;12.25;11.25;;;26.70;99.90;;;;;;5095421;28;20208;-67
2023/08/20 00:21:07;;;;;;;11.18;10.32;;;26.50;99.90;;;;;;5084567;28;20673;-67
2023/08/20 00:23:35;;;;;;;11.68;10.68;;;26.50;99.90;;;;;;5084591;28;20342;-68
2023/08/20 00:26:03;;;;;;;11.73;10.55;;;26.30;99.90;;;;;;5102529;28;20194;-67
2023/08/20 00:28:33;;;;;;;11.15;10.25;;;26.30;99.90;;;;;;5104179;28;20198;-68
2023/08/20 00:31:00;;;;;;;11.65;10.55;;;26.30;99.90;;;;;;5090577;28;20201;-67
2023/08/20 00:33:27;;;;;;;12.27;10.50;;;26.30;99.90;;;;;;5084798;28;20214;-67
2023/08/20 00:35:54;;;;;;;10.68;9.77;;;26.20;99.90;;;;;;5084751;28;20268;-67
2023/08/20 00:38:21;;;;;;;10.45;9.70;;;26.30;99.90;;;;;;5095519;28;20400;-67
2023/08/20 00:40:48;;;;;;;12.10;10.90;;;26.30;99.90;;;;;;5099107;28;20573;-68
2023/08/20 00:43:15;;;;;;;11.25;10.20;;;26.30;99.90;;;;;;5088648;28;20298;-67
2023/08/20 00:45:43;;;;;;;11.27;10.27;;;26.30;99.90;;;;;;5088474;28;20213;-67
2023/08/20 00:48:12;;;;;;;11.93;11.00;;;26.30;99.90;;;;;;5088057;28;20273;-67
2023/08/20 00:50:39;;;;;;;12.00;10.85;;;26.10;99.90;;;;;;5088545;28;20229;-67
2023/08/20 00:53:07;;;;;;;10.65;9.75;;;26.10;99.90;;;;;;5088747;28;20207;-68
2023/08/20 00:55:35;;;;;;;14.80;10.30;;;26.10;99.90;;;;;;5087923;28;20301;-67
2023/08/20 00:58:02;;;;;;;12.27;10.48;;;26.10;99.90;;;;;;5088103;28;20748;-67
2023/08/20 01:00:29;;;;;;;11.20;10.23;;;26.20;99.90;;;;;;5087877;28;20782;-67
2023/08/20 01:02:57;;;;;;;11.63;10.50;;;26.00;99.90;;;;;;5088341;28;20355;-67
2023/08/20 01:05:25;;;;;;;11.80;10.27;;;26.10;99.90;;;;;;5087912;28;20285;-67
2023/08/20 01:08:05;;;;;;;10.30;9.50;;;26.10;99.90;;;;;;5102195;28;20236;-67
2023/08/20 01:10:40;;;;;;;11.55;9.32;;;26.10;99.90;;;;;;5107380;28;20277;-67
2023/08/20 01:13:08;;;;;;;11.10;10.15;;;26.20;99.90;;;;;;5088124;28;20187;-67
2023/08/20 01:15:35;;;;;;;11.43;10.32;;;26.30;99.90;;;;;;5089685;28;20210;-67
2023/08/20 01:18:04;;;;;;;10.35;9.55;;;26.40;99.90;;;;;;5088963;28;20209;-67
2023/08/20 01:20:46;;;;;;;10.40;9.60;;;26.40;99.90;;;;;;5088152;28;20214;-67
2023/08/20 01:23:55;;;;;;;11.20;9.98;;;26.50;99.90;;;;;;5098108;28;20194;-67
2023/08/20 01:26:36;;;;;;;11.02;9.65;;;26.40;99.90;;;;;;5086693;28;20251;-68
2023/08/20 01:29:06;;;;;;;10.60;9.70;;;26.30;99.90;;;;;;5101473;28;20195;-67
2023/08/20 01:31:34;;;;;;;10.18;9.30;;;26.20;99.90;;;;;;5087139;28;20257;-67
2023/08/20 01:34:02;;;;;;;10.30;9.68;;;26.20;99.90;;;;;;5102863;28;20206;-67
2023/08/20 01:36:29;;;;;;;11.00;9.93;;;26.10;99.90;;;;;;5107169;28;20214;-67
2023/08/20 01:38:56;;;;;;;10.75;9.65;;;26.00;99.90;;;;;;5107891;28;20202;-67
2023/08/20 01:41:23;;;;;;;10.32;9.43;;;26.10;99.90;;;;;;5112627;27;20205;-67
2023/08/20 01:43:50;;;;;;;10.55;9.50;;;26.10;99.90;;;;;;5107695;28;20225;-68
2023/08/20 01:46:18;;;;;;;16.50;9.82;;;26.10;99.90;;;;;;5107602;28;20317;-67
2023/08/20 01:48:45;;;;;;;9.85;9.02;;;26.00;99.90;;;;;;5107739;28;20636;-67
2023/08/20 01:51:12;;;;;;;10.23;9.40;;;25.90;99.90;;;;;;5107601;28;20657;-67
2023/08/20 01:53:39;;;;;;;10.82;9.85;;;25.80;99.90;;;;;;5105429;28;20198;-67
2023/08/20 01:56:11;;;;;;;10.27;9.48;;;25.90;99.90;;;;;;5107527;28;20283;-67
2023/08/20 01:58:38;;;;;;;9.43;8.80;;;25.80;99.90;;;;;;5107169;28;20194;-67
2023/08/20 02:01:05;;;;;;;10.93;10.05;;;25.80;99.90;;;;;;5107274;28;20779;-67
2023/08/20 02:03:33;;;;;;;10.32;9.23;;;25.70;99.90;;;;;;5106963;28;20213;-67
2023/08/20 02:06:00;;;;;;;14.15;9.88;;;25.80;99.90;;;;;;5106540;28;20221;-67
2023/08/20 02:08:27;;;;;;;9.75;8.95;;;25.80;99.90;;;;;;5107352;28;20322;-67
2023/08/20 02:11:01;;;;;;;9.52;8.73;;;25.70;99.90;;;;;;5106734;27;20210;-67
2023/08/20 02:13:28;;;;;;;9.82;9.02;;;25.80;99.90;;;;;;5086772;28;20246;-67
2023/08/20 02:15:59;;;;;;;8.65;7.78;;;25.80;99.90;;;;;;5087308;28;20612;-67
2023/08/20 02:18:26;;;;;;;9.77;9.02;;;25.80;99.90;;;;;;5100606;28;20198;-68
2023/08/20 02:20:54;;;;;;;11.20;9.60;;;25.90;99.90;;;;;;5107129;28;20206;-67
2023/08/20 02:23:21;;;;;;;10.50;9.57;;;25.70;99.90;;;;;;5106897;28;20205;-68
2023/08/20 02:25:48;;;;;;;9.70;8.90;;;25.70;99.90;;;;;;5107072;28;20213;-67
2023/08/20 02:28:15;;;;;;;9.57;8.73;;;25.60;99.90;;;;;;5094815;28;20322;-67
2023/08/20 02:30:42;;;;;;;10.55;8.70;;;25.60;99.90;;;;;;5088661;28;20289;-68
2023/08/20 02:33:09;;;;;;;10.40;9.38;;;25.60;99.90;;;;;;5086690;28;20775;-68
2023/08/20 02:35:36;;;;;;;8.88;8.18;;;25.60;99.90;;;;;;5086556;28;20209;-68
2023/08/20 02:38:05;;;;;;;9.32;8.63;;;25.60;99.90;;;;;;5086160;28;20231;-67
2023/08/20 02:40:32;;;;;;;10.30;9.23;;;25.50;99.90;;;;;;5099793;28;20889;-67
2023/08/20 02:42:59;;;;;;;9.18;8.38;;;25.30;99.90;;;;;;5106377;28;20299;-67
2023/08/20 02:45:26;;;;;;;9.70;8.90;;;25.20;99.90;;;;;;5086621;28;20400;-67
2023/08/20 02:47:53;;;;;;;10.48;9.40;;;25.10;99.90;;;;;;5085730;28;20973;-68
2023/08/20 02:50:20;;;;;;;9.10;8.23;;;25.20;99.90;;;;;;5087472;28;20209;-68
2023/08/20 02:52:47;;;;;;;9.88;8.98;;;25.20;99.90;;;;;;5106156;28;20306;-67
2023/08/20 02:55:15;;;;;;;9.57;8.65;;;25.40;99.90;;;;;;5106264;28;20289;-67
2023/08/20 02:57:42;;;;;;;11.88;9.02;;;25.40;99.90;;;;;;5106344;28;20242;-67
2023/08/20 03:00:11;;;;;;;9.30;8.50;;;25.50;99.90;;;;;;5105626;28;20324;-67
2023/08/20 03:02:39;;;;;;;9.55;8.73;;;25.60;99.90;;;;;;5086002;28;20207;-67
2023/08/20 03:05:07;;;;;;;10.20;9.30;;;25.50;99.90;;;;;;5085363;28;20244;-66
2023/08/20 03:07:34;;;;;;;10.15;9.18;;;25.50;99.90;;;;;;5087395;28;20723;-66
2023/08/20 03:10:00;;;;;;;10.05;9.10;;;25.40;99.90;;;;;;5086318;28;20305;-67
2023/08/20 03:12:29;;;;;;;10.05;9.25;;;25.20;99.90;;;;;;5085383;28;20668;-67
2023/08/20 03:14:56;;;;;;;10.77;9.73;;;25.00;99.90;;;;;;5085774;28;20211;-67
2023/08/20 03:17:23;;;;;;;9.10;8.27;;;24.90;99.90;;;;;;5085453;28;20754;-67
2023/08/20 03:19:56;;;;;;;9.68;8.98;;;25.00;99.90;;;;;;5085751;28;20209;-67
2023/08/20 03:22:24;;;;;;;10.07;9.15;;;24.90;99.90;;;;;;5085635;28;20230;-67
2023/08/20 03:24:51;;;;;;;10.15;9.13;;;24.80;99.90;;;;;;5087193;28;20203;-67
2023/08/20 03:27:18;;;;;;;11.38;8.98;;;24.90;99.90;;;;;;5105609;28;20699;-67
2023/08/20 03:29:47;;;;;;;10.27;9.23;;;25.00;99.90;;;;;;5100668;28;20290;-67
2023/08/20 03:32:14;;;;;;;10.15;9.13;;;25.10;99.90;;;;;;5085432;28;20230;-67
2023/08/20 03:34:41;;;;;;;9.48;8.75;;;25.10;99.90;;;;;;5085326;28;20289;-67
2023/08/20 03:37:08;;;;;;;9.43;8.48;;;25.20;99.90;;;;;;5085639;28;20298;-67
2023/08/20 03:39:34;;;;;;;11.18;8.85;;;25.20;99.90;;;;;;5084871;28;20965;-67
2023/08/20 03:42:03;;;;;;;9.30;8.35;;;25.20;99.90;;;;;;5101743;28;20206;-67
2023/08/20 03:44:30;;;;;;;11.48;9.90;;;25.00;99.90;;;;;;5103686;28;20202;-67
2023/08/20 03:46:58;;;;;;;10.98;9.98;;;25.00;99.90;;;;;;5105017;28;20222;-67
2023/08/20 03:49:25;;;;;;;9.93;9.05;;;24.70;99.90;;;;;;5104885;28;20297;-67
2023/08/20 03:51:52;;;;;;;10.82;9.82;;;24.60;99.90;;;;;;5105335;28;20293;-67
2023/08/20 03:54:19;;;;;;;12.27;10.77;;;24.40;99.90;;;;;;5104385;28;20659;-67
2023/08/20 03:56:46;;;;;;;11.00;10.00;;;24.40;99.90;;;;;;5105176;28;20251;-67
2023/08/20 03:59:12;;;;;;;11.00;9.90;;;24.40;99.90;;;;;;5104806;28;20241;-68
2023/08/20 04:01:39;;;;;;;11.43;10.15;;;24.40;99.90;;;;;;5105395;28;20693;-67
2023/08/20 04:04:08;;;;;;;10.88;9.15;;;24.60;99.90;;;;;;5104983;28;20325;-68
2023/08/20 04:06:34;;;;;;;10.35;9.45;;;24.70;99.90;;;;;;5104066;28;20202;-68
2023/08/20 04:09:01;;;;;;;10.90;9.90;;;24.80;99.90;;;;;;5084993;28;20321;-68
2023/08/20 04:11:28;;;;;;;10.60;9.60;;;24.80;99.90;;;;;;5097493;28;20237;-67
2023/08/20 04:13:55;;;;;;;11.02;10.02;;;24.80;99.90;;;;;;5105394;28;20213;-67
2023/08/20 04:16:22;;;;;;;10.98;9.98;;;24.90;99.90;;;;;;5104795;28;20480;-67
2023/08/20 04:18:49;;;;;;;10.63;9.73;;;24.90;99.90;;;;;;5105149;28;20302;-67
2023/08/20 04:21:17;;;;;;;12.18;11.00;;;24.90;99.90;;;;;;5102288;28;20207;-67
2023/08/20 04:23:44;;;;;;;15.63;10.00;;;24.90;99.90;;;;;;5098778;28;20209;-67
2023/08/20 04:26:11;;;;;;;11.25;10.20;;;24.90;99.90;;;;;;5105694;28;20301;-66
2023/08/20 04:28:38;;;;;;;10.93;10.10;;;25.00;99.90;;;;;;5104976;28;20234;-68
2023/08/20 04:31:04;;;;;;;10.75;9.82;;;25.00;99.90;;;;;;5099598;28;20294;-67
2023/08/20 04:33:31;;;;;;;13.75;10.93;;;24.80;99.90;;;;;;5085048;28;20289;-67
2023/08/20 04:35:58;;;;;;;11.38;10.38;;;24.70;99.90;;;;;;5099133;28;20285;-66
2023/08/20 04:38:27;;;;;;;11.57;10.45;;;24.80;99.90;;;;;;5104638;28;20209;-67
2023/08/20 04:40:54;;;;;;;12.00;10.93;;;24.80;99.90;;;;;;5112421;28;20282;-66
2023/08/20 04:43:21;;;;;;;11.50;10.60;;;24.80;99.90;;;;;;5115477;28;20520;-67
2023/08/20 04:45:48;;;;;;;11.35;10.35;;;24.80;99.90;;;;;;5105106;28;20214;-68
2023/08/20 04:48:15;;;;;;;14.13;12.30;;;24.60;99.90;;;;;;5105358;28;20261;-67
2023/08/20 04:50:41;;;;;;;12.40;11.15;;;24.40;99.90;;;;;;5104774;28;20940;-67
2023/08/20 04:53:08;;;;;;;13.35;12.05;;;24.30;99.90;;;;;;5086536;28;20293;-67
2023/08/20 04:55:36;;;;;;;13.93;12.73;;;24.10;99.90;;;;;;5098036;28;20206;-67
2023/08/20 04:58:04;;;;;;;13.68;12.45;;;24.00;99.90;;;;;;5104554;28;20325;-67
2023/08/20 05:00:31;;;;;;;13.30;11.82;;;24.00;99.90;;;;;;5104203;28;20244;-67
2023/08/20 05:02:58;;;;;;;13.30;12.02;;;23.80;99.90;;;;;;5104543;28;20220;-67
2023/08/20 05:05:25;;;;;;;12.52;11.23;;;24.00;99.90;;;;;;5104472;28;20695;-67
2023/08/20 05:07:52;;;;;;;12.75;11.35;;;24.10;99.90;;;;;;5104652;28;20316;-66
2023/08/20 05:10:20;;;;;;;13.02;11.82;;;24.30;99.90;;;;;;5107619;28;20247;-67
2023/08/20 05:12:48;;;;;;;12.82;11.70;;;24.20;99.90;;;;;;5125087;28;20206;-67
2023/08/20 05:15:15;;;;;;;13.27;11.65;;;24.30;99.90;;;;;;5124896;27;20208;-67
2023/08/20 05:17:42;;;;;;;12.68;11.27;;;24.40;99.90;;;;;;5120404;28;20202;-67
2023/08/20 05:20:10;;;;;;;13.70;12.50;;;24.40;99.90;;;;;;5104759;28;20214;-66
2023/08/20 05:22:37;;;;;;;13.02;11.43;;;24.30;99.90;;;;;;5104560;28;20246;-66
2023/08/20 05:25:04;;;;;;;12.68;11.73;;;24.40;99.90;;;;;;5104731;28;20646;-67
2023/08/20 05:27:31;;;;;;;12.63;11.43;;;24.40;99.90;;;;;;5106234;28;20206;-67
2023/08/20 05:29:59;;;;;;;13.93;12.52;;;24.00;99.90;;;;;;5101503;28;20209;-67
2023/08/20 05:32:26;;;;;;;12.63;11.52;;;23.90;99.90;;;;;;5103003;28;20194;-67
2023/08/20 05:34:53;;;;;;;13.40;11.77;;;24.00;99.90;;;;;;5108399;28;20198;-67
2023/08/20 05:37:19;;;;;;;13.13;11.88;;;23.90;99.90;;;;;;5108237;28;20238;-67
2023/08/20 05:39:46;;;;;;;11.52;10.43;;;23.80;99.90;;;;;;5107999;28;20206;-67
2023/08/20 05:42:13;;;;;;;11.32;10.10;;;23.80;99.90;;;;;;5099363;27;20233;-67
2023/08/20 05:44:40;;;;;;;10.55;9.75;;;23.60;99.90;;;;;;5087132;28;20931;-67
2023/08/20 05:47:08;;;;;;;11.25;10.25;;;23.30;99.90;;;;;;5087382;28;20727;-66
2023/08/20 05:49:35;;;;;;;10.43;9.50;;;23.40;99.90;;;;;;5087534;28;20681;-67
2023/08/20 05:52:03;;;;;;;11.40;9.68;;;23.40;99.90;;;;;;5087302;28;20203;-67
2023/08/20 05:54:30;;;;;;;11.40;10.27;;;23.60;99.90;;;;;;5087906;28;20207;-67
2023/08/20 05:56:58;;;;;;;10.43;9.35;;;23.60;99.90;;;;;;5089468;28;20287;-67
2023/08/20 05:59:25;;;;;;;10.15;9.25;;;23.60;99.90;;;;;;5087130;28;20632;-67
2023/08/20 06:01:54;;;;;;;10.00;9.20;;;23.70;99.90;;;;;;5087582;28;20245;-67
2023/08/20 06:04:23;;;;;;;9.45;8.73;;;23.60;99.90;;;;;;5087298;28;20217;-67
2023/08/20 06:06:50;;;;;;;9.75;8.85;;;23.80;99.90;;;;;;5100301;28;20233;-67
2023/08/20 06:09:17;;;;;;;9.93;8.98;;;23.70;99.90;;;;;;5107201;28;20244;-67
2023/08/20 06:11:44;;;;;;;10.50;9.52;;;23.90;99.90;;;;;;5121787;27;20296;-67
2023/08/20 06:14:11;;;;;;;13.02;9.88;;;24.00;99.90;;;;;;5121227;27;20783;-67
2023/08/20 06:16:38;;;;;;;10.30;9.40;;;24.10;99.90;;;;;;5107229;28;20220;-67
2023/08/20 06:19:04;;;;;;;11.88;10.65;;;24.20;99.90;;;;;;5103225;28;20237;-67
2023/08/20 06:21:33;;;;;;;11.05;10.15;;;24.30;99.90;;;;;;5107303;28;20233;-67
2023/08/20 06:24:01;;;;;;;10.88;9.98;;;24.40;99.90;;;;;;5107064;28;20206;-67
2023/08/20 06:26:28;;;;;;;10.85;9.93;;;24.40;99.90;;;;;;5107084;28;20206;-67
2023/08/20 06:28:55;;;;;;;10.55;9.65;;;24.40;99.90;;;;;;5106409;28;20317;-67
2023/08/20 06:31:21;;;;;;;10.55;9.55;;;24.20;99.90;;;;;;5086703;28;20738;-67
2023/08/20 06:33:48;;;;;;;9.80;9.02;;;24.30;99.90;;;;;;5086248;28;20550;-67
2023/08/20 06:36:15;;;;;;;10.07;9.27;;;24.50;99.90;;;;;;5086306;28;20246;-66
2023/08/20 06:38:43;;;;;;;9.07;8.35;;;24.60;99.90;;;;;;5085497;28;20703;-66
2023/08/20 06:41:10;;;;;;;9.27;8.48;;;24.70;99.90;;;;;;5086856;28;20207;-66
2023/08/20 06:43:37;;;;;;;9.18;8.38;;;24.80;99.90;;;;;;5086562;28;20290;-66
2023/08/20 06:46:04;;;;;;;9.60;8.90;;;24.70;99.90;;;;;;5086769;28;20227;-66
2023/08/20 06:48:31;;;;;;;10.25;9.30;;;24.80;99.90;;;;;;5086068;28;20354;-66
2023/08/20 06:50:58;;;;;;;9.15;8.35;;;24.80;99.90;;;;;;5086544;28;20317;-65
2023/08/20 06:53:25;;;;;;;8.68;7.80;;;24.80;99.90;;;;;;5089286;28;20244;-66
2023/08/20 06:55:53;;;;;;;8.25;7.57;;;24.70;99.90;;;;;;5094492;28;20317;-65
2023/08/20 06:58:20;;;;;;;7.28;6.72;;;24.40;99.90;;;;;;5086059;28;20217;-65
2023/08/20 07:00:46;;;;;;;6.93;6.45;;;24.30;99.90;;;;;;5085871;28;20274;-66
2023/08/20 07:03:13;;;;;;;6.68;6.15;;;24.40;99.90;;;;;;5086259;28;20213;-66
2023/08/20 07:05:40;;;;;;;6.35;5.75;;;24.40;99.90;;;;;;5088438;28;20213;-66
2023/08/20 07:08:07;;;;;;;6.70;6.03;;;24.50;99.90;;;;;;5105928;28;20210;-66
2023/08/20 07:10:34;;;;;;;5.35;4.93;;;24.60;99.90;;;;;;5107818;27;20211;-66
2023/08/20 07:13:02;;;;;;;6.18;5.57;;;24.80;99.90;;;;;;5108305;27;20212;-66
2023/08/20 07:15:30;;;;;;;5.80;5.30;;;24.90;99.90;;;;;;5105609;28;20664;-66
2023/08/20 07:17:57;;;;;;;5.05;4.75;;;25.00;99.90;;;;;;5105225;28;20230;-66
2023/08/20 07:20:24;;;;;;;5.70;5.20;;;25.00;99.90;;;;;;5105889;28;20320;-66
2023/08/20 07:22:51;;;;;;;4.25;4.00;;;25.10;99.90;;;;;;5105413;28;20210;-66
2023/08/20 07:25:18;;;;;;;4.07;3.67;;;24.90;99.90;;;;;;5105528;28;20309;-66
2023/08/20 07:27:45;;;;;;;4.88;3.75;;;24.50;99.90;;;;;;5105599;28;20201;-65
2023/08/20 07:30:13;;;;;;;3.88;3.53;;;24.40;99.90;;;;;;5105752;28;20236;-66
2023/08/20 07:32:40;;;;;;;4.50;4.20;;;24.30;99.90;;;;;;5105369;28;20305;-66
2023/08/20 07:35:08;;;;;;;5.00;4.60;;;24.40;99.90;;;;;;5105570;28;20208;-66
2023/08/20 07:37:35;;;;;;;4.50;4.13;;;24.30;99.90;;;;;;5105057;28;20208;-66
2023/08/20 07:40:02;;;;;;;4.85;4.35;;;24.40;99.90;;;;;;5097529;28;20238;-66
2023/08/20 07:42:29;;;;;;;4.88;4.20;;;24.40;99.90;;;;;;5105201;28;20210;-66
2023/08/20 07:44:55;;;;;;;4.70;4.30;;;24.60;99.90;;;;;;5105248;28;20581;-65
2023/08/20 07:47:24;;;;;;;4.20;3.90;;;24.70;99.90;;;;;;5105081;28;20232;-65
2023/08/20 07:49:50;;;;;;;4.15;3.83;;;24.80;99.90;;;;;;5092726;28;20719;-66
2023/08/20 07:52:17;;;;;;;4.38;3.97;;;24.70;99.90;;;;;;5084827;28;20799;-65
2023/08/20 07:54:44;;;;;;;3.83;3.42;;;24.70;99.90;;;;;;5096107;28;20213;-65
2023/08/20 07:57:11;;;;;;;3.65;3.35;;;24.80;99.90;;;;;;5105662;28;20623;-65
2023/08/20 07:59:39;;;;;;;3.10;2.90;;;25.00;99.90;;;;;;5104722;28;20240;-66
2023/08/20 08:02:06;;;;;;;3.42;3.20;;;25.10;99.90;;;;;;5104890;28;20245;-66
2023/08/20 08:04:35;;;;;;;3.00;2.83;;;25.20;99.90;;;;;;5105011;28;20201;-66
2023/08/20 08:07:01;;;;;;;4.22;3.10;;;25.30;99.90;;;;;;5089294;28;21035;-66
2023/08/20 08:09:29;;;;;;;3.17;2.58;;;25.40;99.90;;;;;;5083417;28;20939;-66
2023/08/20 08:11:57;;;;;;;2.83;2.50;;;25.50;99.90;;;;;;5115674;27;20224;-66
2023/08/20 08:14:24;;;;;;;3.38;2.80;;;25.60;99.90;;;;;;5124130;27;20316;-66
2023/08/20 08:16:51;;;;;;;2.88;2.67;;;25.60;99.90;;;;;;5124036;27;20212;-66
2023/08/20 08:19:19;;;;;;;2.92;2.25;;;25.70;99.90;;;;;;5104233;27;20321;-66
2023/08/20 08:21:48;;;;;;;2.25;2.10;;;25.80;99.90;;;;;;5103061;28;20283;-66
2023/08/20 08:24:15;;;;;;;2.22;1.95;;;25.90;99.90;;;;;;5103617;28;20202;-66
2023/08/20 08:26:42;;;;;;;4.18;1.90;;;26.00;99.90;;;;;;5103848;28;20288;-66
2023/08/20 08:29:10;;;;;;;1.80;1.70;;;26.10;99.90;;;;;;5103540;28;20799;-66
2023/08/20 08:31:37;;;;;;;2.67;1.90;;;26.10;99.90;;;;;;5083473;28;20203;-66
2023/08/20 08:34:04;;;;;;;2.40;2.10;;;26.20;99.90;;;;;;5095917;28;20206;-66
2023/08/20 08:36:31;;;;;;;3.15;2.08;;;26.20;99.90;;;;;;5082654;28;20294;-66
2023/08/20 08:38:59;;;;;;;2.92;2.00;;;26.20;99.90;;;;;;5083005;28;20248;-66
2023/08/20 08:41:29;;;;;;;3.83;2.08;;;26.10;99.90;;;;;;5106760;28;21004;-66
2023/08/20 08:43:57;;;;;;;2.40;2.20;;;26.10;99.90;;;;;;5088477;28;20689;-66
2023/08/20 08:46:25;;;;;;;2.53;1.92;;;26.10;99.90;;;;;;5082317;28;20599;-66
2023/08/20 08:48:53;;;;;;;4.13;2.15;;;26.10;99.90;;;;;;5092453;28;20596;-66
2023/08/20 08:51:20;;;;;;;1.65;1.55;;;26.10;99.90;;;;;;5103061;28;20241;-66
2023/08/20 08:53:47;;;;;;;2.88;1.80;;;26.10;99.90;;;;;;5102559;28;20210;-66
2023/08/20 08:56:16;;;;;;;3.50;1.80;;;26.10;99.90;;;;;;5082787;28;20241;-66
2023/08/20 08:58:43;;;;;;;1.60;1.50;;;26.10;99.90;;;;;;5082476;28;20294;-67
2023/08/20 09:01:10;;;;;;;2.05;1.60;;;26.10;99.90;;;;;;5082760;28;20914;-66
2023/08/20 09:03:37;;;;;;;1.77;1.33;;;26.10;99.90;;;;;;5100457;27;20217;-66
2023/08/20 09:06:09;;;;;;;1.65;1.33;;;26.10;99.90;;;;;;5123679;27;20283;-66
2023/08/20 09:08:37;;;;;;;2.03;1.70;;;26.10;99.90;;;;;;5106488;28;20259;-66
2023/08/20 09:11:04;;;;;;;1.67;1.58;;;26.00;99.90;;;;;;5115587;27;20305;-67
2023/08/20 09:13:37;;;;;;;2.30;1.60;;;26.00;99.90;;;;;;5127412;27;20215;-66
2023/08/20 09:16:08;;;;;;;2.20;1.73;;;25.90;99.90;;;;;;5127310;27;20216;-66
2023/08/20 09:18:39;;;;;;;1.77;1.67;;;25.90;99.90;;;;;;5110851;27;20194;-66
2023/08/20 09:21:08;;;;;;;2.35;2.15;;;26.00;99.90;;;;;;5106857;28;20385;-66
2023/08/20 09:23:35;;;;;;;2.55;1.55;;;26.10;99.90;;;;;;5106379;28;20253;-66
2023/08/20 09:26:03;;;;;;;5.47;1.80;;;26.20;99.90;;;;;;5106701;28;20292;-66
2023/08/20 09:28:43;;;;;;;2.38;1.70;;;26.30;99.90;;;;;;5106270;28;20572;-66
2023/08/20 09:31:10;;;;;;;3.10;2.00;;;26.30;99.90;;;;;;5106244;28;20198;-66
2023/08/20 09:33:37;;;;;;;1.95;1.85;;;26.50;99.90;;;;;;5106461;28;20609;-66
2023/08/20 09:36:05;;;;;;;1.77;1.67;;;26.60;99.90;;;;;;5106648;28;20227;-66
2023/08/20 09:38:38;;;;;;;1.63;1.52;;;26.70;99.90;;;;;;5106335;28;20210;-66
2023/08/20 09:41:09;;;;;;;1.90;1.80;;;26.90;99.90;;;;;;5111020;27;20218;-66
2023/08/20 09:43:39;;;;;;;1.75;1.65;;;27.00;99.90;;;;;;5091150;28;20286;-66
2023/08/20 09:46:10;;;;;;;1.80;1.70;;;27.10;99.90;;;;;;5085788;28;20965;-66
2023/08/20 09:48:42;;;;;;;2.47;1.95;;;27.10;99.90;;;;;;5085778;28;20298;-66
2023/08/20 09:51:12;;;;;;;2.30;1.70;;;27.10;99.90;;;;;;5089778;28;20217;-66
2023/08/20 09:53:45;;;;;;;1.98;1.88;;;27.20;99.90;;;;;;5106104;28;20657;-66
2023/08/20 09:56:22;;;;;;;1.65;1.65;;;27.30;99.90;;;;;;5106064;28;20297;-66
2023/08/20 09:58:51;;;;;;;2.13;1.90;;;27.30;99.90;;;;;;5102774;28;20263;-66
2023/08/20 10:01:20;;;;;;;2.15;1.80;;;27.40;99.90;;;;;;5105693;28;20198;-66
2023/08/20 10:03:46;;;;;;;1.90;1.80;;;27.40;99.90;;;;;;5094671;27;20743;-66
2023/08/20 10:06:13;;;;;;;3.55;1.92;;;27.50;99.90;;;;;;5086000;28;20428;-67
2023/08/20 10:08:40;;;;;;;2.00;1.90;;;27.60;99.90;;;;;;5085017;28;20302;-66
2023/08/20 10:11:07;;;;;;;3.22;2.05;;;27.60;99.90;;;;;;5084955;28;20253;-67
2023/08/20 10:13:34;;;;;;;1.80;1.70;;;27.70;99.90;;;;;;5083603;28;20198;-66
2023/08/20 10:16:01;;;;;;;4.85;2.10;;;27.80;99.90;;;;;;5097111;28;20212;-67
2023/08/20 10:18:29;;;;;;;2.13;2.03;;;27.90;99.90;;;;;;5105780;28;20295;-67
2023/08/20 10:20:59;;;;;;;2.20;2.10;;;27.90;99.90;;;;;;5105477;28;20212;-67
2023/08/20 10:23:26;;;;;;;2.20;2.10;;;28.00;99.90;;;;;;5105450;28;20664;-67
2023/08/20 10:25:53;;;;;;;3.03;2.25;;;28.00;99.90;;;;;;5105704;28;20676;-67
2023/08/20 10:28:22;;;;;;;2.15;2.05;;;28.00;99.90;;;;;;5092400;28;20329;-67
2023/08/20 10:31:07;;;;;;;2.10;2.00;;;28.10;99.90;;;;;;5085458;28;20222;-66
2023/08/20 10:33:37;;;;;;;2.10;2.00;;;28.10;99.90;;;;;;5085451;28;20230;-67
2023/08/20 10:36:14;;;;;;;2.25;2.00;;;28.20;99.90;;;;;;5099845;28;20195;-66
2023/08/20 10:38:41;;;;;;;2.10;2.00;;;28.30;99.90;;;;;;5086920;28;20206;-67
2023/08/20 10:41:09;;;;;;;2.72;2.03;;;28.40;99.90;;;;;;5113800;27;20206;-67
2023/08/20 10:43:38;;;;;;;2.38;2.17;;;28.50;99.90;;;;;;5125658;27;20225;-67
2023/08/20 10:46:06;;;;;;;3.33;1.92;;;28.60;99.90;;;;;;5125982;27;20312;-67
2023/08/20 10:48:35;;;;;;;3.20;2.05;;;28.60;99.90;;;;;;5089879;27;20297;-67
2023/08/20 10:51:13;;;;;;;2.33;2.10;;;28.70;99.90;;;;;;5104628;28;20983;-67
2023/08/20 10:53:42;;;;;;;3.35;2.10;;;28.80;99.90;;;;;;5105195;28;20209;-67
2023/08/20 10:56:14;;;;;;;3.55;2.20;;;28.90;99.90;;;;;;5102836;28;20283;-69
2023/08/20 10:58:46;;;;;;;4.30;2.50;;;28.90;99.90;;;;;;5084285;28;20664;-67
2023/08/20 11:01:21;;;;;;;4.13;2.20;;;29.00;99.90;;;;;;5085058;28;20238;-67
2023/08/20 11:03:51;;;;;;;4.40;2.50;;;29.00;99.90;;;;;;5084883;28;20592;-67
2023/08/20 11:06:19;;;;;;;2.50;2.30;;;29.10;99.90;;;;;;5084765;28;20313;-67
2023/08/20 11:08:46;;;;;;;2.80;2.50;;;29.10;99.90;;;;;;5092240;28;20276;-67
2023/08/20 11:11:13;;;;;;;2.22;2.13;;;29.20;99.90;;;;;;5091986;28;20233;-67
2023/08/20 11:13:42;;;;;;;2.70;2.50;;;29.20;99.90;;;;;;5105122;28;20202;-67
2023/08/20 11:16:10;;;;;;;2.40;2.30;;;29.30;99.90;;;;;;5093661;28;20762;-67
2023/08/20 11:18:37;;;;;;;3.05;2.50;;;29.30;99.90;;;;;;5084393;28;20651;-67
2023/08/20 11:21:05;;;;;;;4.47;2.60;;;29.30;99.90;;;;;;5098924;28;20977;-67
2023/08/20 11:23:33;;;;;;;2.63;2.42;;;29.40;99.90;;;;;;5104097;28;20221;-67
2023/08/20 11:26:00;;;;;;;2.38;2.17;;;29.50;99.90;;;;;;5104037;28;20216;-67
2023/08/20 11:28:28;;;;;;;3.03;2.20;;;29.50;99.90;;;;;;5103993;28;20284;-67
2023/08/20 11:30:56;;;;;;;5.32;2.10;;;29.50;99.90;;;;;;5089645;28;20231;-67
2023/08/20 11:33:23;;;;;;;2.55;2.00;;;29.50;99.90;;;;;;5083990;28;20306;-67
2023/08/20 11:35:51;;;;;;;2.17;2.08;;;29.50;99.90;;;;;;5104315;28;20233;-68
2023/08/20 11:38:20;;;;;;;2.05;1.83;;;29.50;99.90;;;;;;5103443;28;20292;-67
2023/08/20 11:40:47;;;;;;;2.33;2.10;;;29.60;99.90;;;;;;5103847;28;20337;-67
2023/08/20 11:43:16;;;;;;;2.15;2.05;;;29.50;99.90;;;;;;5104325;28;20206;-67
2023/08/20 11:45:48;;;;;;;2.85;1.92;;;29.60;99.90;;;;;;5104167;28;20325;-67
2023/08/20 11:48:16;;;;;;;2.13;1.83;;;29.60;99.90;;;;;;5103695;28;20259;-67
2023/08/20 11:50:43;;;;;;;1.92;1.83;;;29.70;99.90;;;;;;5085834;28;20299;-67
2023/08/20 11:53:10;;;;;;;1.98;1.88;;;29.70;99.90;;;;;;5092459;28;20664;-67
2023/08/20 11:55:40;;;;;;;2.50;1.95;;;29.70;99.90;;;;;;5104410;28;20210;-67
2023/08/20 11:58:11;;;;;;;3.60;1.80;;;29.80;99.90;;;;;;5104707;28;20271;-67
2023/08/20 12:00:38;;;;;;;4.82;1.77;;;29.80;99.90;;;;;;5102942;28;20305;-67
2023/08/20 12:03:06;;;;;;;2.10;1.90;;;29.80;99.90;;;;;;5083978;28;20681;-67
2023/08/20 12:05:32;;;;;;;2.45;1.70;;;29.80;99.90;;;;;;5083657;28;20225;-67
2023/08/20 12:08:02;;;;;;;4.75;2.00;;;29.90;99.90;;;;;;5083826;28;20328;-67
2023/08/20 12:10:31;;;;;;;1.73;1.60;;;29.90;99.90;;;;;;5083420;28;20580;-67
2023/08/20 12:12:59;;;;;;;1.95;1.52;;;29.90;99.90;;;;;;5088670;28;20202;-67
2023/08/20 12:15:26;;;;;;;3.05;1.58;;;29.90;99.90;;;;;;5103572;28;20301;-67
2023/08/20 12:18:01;;;;;;;1.70;1.60;;;29.90;99.90;;;;;;5104083;28;20288;-67
2023/08/20 12:20:31;;;;;;;1.67;1.55;;;29.90;99.90;;;;;;5103400;28;20212;-67
2023/08/20 12:23:02;;;;;;;1.52;1.42;;;30.00;99.50;;;;;;5103976;28;20640;-67
2023/08/20 12:25:31;;;;;;;2.72;1.33;;;30.00;99.00;;;;;;5093733;28;20195;-67
2023/08/20 12:27:59;;;;;;;1.73;1.42;;;30.00;99.00;;;;;;5096221;28;20210;-67
2023/08/20 12:30:26;;;;;;;1.83;1.30;;;30.10;98.90;;;;;;5102400;28;20275;-67
2023/08/20 12:32:53;;;;;;;1.35;1.27;;;30.00;98.60;;;;;;5103183;28;20241;-67
2023/08/20 12:35:20;;;;;;;1.67;1.25;;;30.00;97.40;;;;;;5103567;28;20209;-67
2023/08/20 12:37:47;;;;;;;1.48;1.30;;;30.10;98.30;;;;;;5106029;28;20220;-67
2023/08/20 12:40:14;;;;;;;2.65;1.40;;;30.10;98.60;;;;;;5106059;28;20267;-67
2023/08/20 12:42:41;;;;;;;1.55;1.45;;;30.10;99.20;;;;;;5100164;28;20197;-67
2023/08/20 12:45:12;;;;;;;2.58;1.42;;;30.10;99.80;;;;;;5107350;28;20715;-67